Last 6 Hours

AM-Roundhouse Btm 6950'

15 Minute Data | America/Los_Angeles
as of 9/4/26 10:32 PM PDT
Date & Time Temp (°F) RH (%) Dew Pt (°F) Wet Bulb (°F) Wind Dir (°) Wind Spd (mph) Wind Gust (mph) WindChill (°F) Barometric Press (inHg) Snow Depth (HS) (in) Latest Rain (In) Daily Rain (In) Daily Min Temp (°F) Daily Max Temp (°F)
9/4/26 - 2230 43.8 81 38.3 40.9 SSE | 152 4.3 13.0 43.8 30.09 3.1 0.00 0.25 43.7 48.9
9/4/26 - 2215 43.9 81 38.4 41.0 SSE | 150 5.1 11.2 40.0 30.08 2.8 0.00 0.25 43.7 48.9
9/4/26 - 2200 43.7 82 38.5 40.9 SSE | 154 4.1 11.4 43.7 30.08 2.9 0.00 0.25 43.7 48.9
9/4/26 - 2145 44.1 82 38.8 41.3 SSE | 158 4.2 9.7 44.1 30.08 3.1 0.00 0.25 44.0 48.9
9/4/26 - 2130 44.4 83 39.4 41.7 SSE | 151 4.4 11.6 44.4 30.06 3.0 0.00 0.25 44.3 48.9
9/4/26 - 2115 44.7 83 39.8 42.1 SSE | 156 4.4 10.6 44.7 30.07 2.8 0.00 0.25 44.3 48.9
9/4/26 - 2100 44.9 84 40.3 42.4 SE | 136 4.4 11.8 42.0 30.07 2.8 0.00 0.25 44.3 48.9
9/4/26 - 2045 45.2 84 40.7 42.8 SE | 140 4.9 10.6 41.4 30.07 3.0 0.00 0.25 44.3 48.9
9/4/26 - 2030 45.5 84 40.9 43.0 SE | 139 3.3 11.4 43.3 30.06 2.9 0.00 0.25 44.3 48.9
9/4/26 - 2015 45.5 84 40.9 43.0 SSE | 168 3.1 7.1 45.5 30.06 2.9 0.00 0.25 44.3 48.9
9/4/26 - 2000 45.5 84 41.0 43.0 SSE | 156 3.4 8.9 45.5 30.06 2.8 0.00 0.25 44.3 48.9
9/4/26 - 1945 45.9 83 41.0 43.2 S | 174 3.6 14.9 44.5 30.06 2.9 0.00 0.25 44.3 48.9
9/4/26 - 1930 46.0 83 41.1 43.3 S | 182 4.4 11.6 46.0 30.06 2.8 0.00 0.25 44.3 48.9
9/4/26 - 1915 46.2 83 41.2 43.5 S | 183 3.1 9.0 46.2 30.06 2.7 0.00 0.25 44.3 48.9
9/4/26 - 1900 46.4 83 41.5 43.7 S | 171 2.2 8.0 43.1 30.05 2.8 0.00 0.25 44.3 48.9
9/4/26 - 1845 46.6 82 41.4 43.7 S | 188 2.3 6.7 43.8 30.06 2.8 0.00 0.25 44.3 48.9
9/4/26 - 1830 46.6 82 41.5 43.7 S | 171 3.4 9.0 46.6 30.05 2.8 0.00 0.25 44.3 48.9
9/4/26 - 1815 46.8 82 41.7 44.0 SSE | 148 3.4 13.1 43.6 30.05 2.8 0.00 0.25 44.3 48.9
9/4/26 - 1800 46.7 83 42.0 44.1 SE | 133 3.6 8.2 44.8 30.06 2.7 0.00 0.25 44.3 48.9
9/4/26 - 1745 46.9 82 41.8 44.1 SE | 141 4.8 9.9 46.9 30.06 2.7 0.00 0.25 44.3 48.9
9/4/26 - 1730 47.2 82 42.2 44.4 SE | 137 4.0 11.3 46.3 30.05 2.7 0.00 0.25 44.3 48.9
9/4/26 - 1715 47.3 82 42.1 44.4 SE | 129 4.3 17.9 45.0 30.05 2.7 0.00 0.25 44.3 48.9
9/4/26 - 1700 47.4 82 42.3 44.6 ESE | 122 5.4 16.6 41.0 30.05 2.7 0.00 0.25 44.3 48.9
9/4/26 - 1645 47.5 83 42.6 44.8 SE | 142 6.0 14.0 45.4 30.04 2.6 0.00 0.25 44.3 48.9
Max 47.5 84 42.6 44.8 - 6.0 17.9 46.9 30.09 3.1 0.00 0.25 44.3 48.9
Avg 45.8 83 40.8 43.1 - 4.0 11.1 44.2 30.06 2.8 0.00 - - -
Min 43.7 81 38.3 40.9 - 2.2 6.7 40.0 30.04 2.6 0.00 0.25 43.7 48.9
Total - - - - - - - - - - 0.00 - - -